Time;durP1;ratioP1;P1;durP2;ratioP2;P2;SDS_P1;SDS_P2;PMS_P1;PMS_P2;Temp;Humidity;BMP_temperature;BMP_pressure;BME280_temperature;BME280_humidity;BME280_pressure;Samples;Min_cycle;Max_cycle;Signal;HPM_P1;HPM_P2
2022/10/04 00:01:22;;;;;;;1.98;0.70;;;;;;;17.80;35.89;98721.47;5035901;28;20056;-71
2022/10/04 00:03:49;;;;;;;2.88;0.60;;;;;;;17.80;35.73;98720.66;5052217;28;20511;-70
2022/10/04 00:06:19;;;;;;;2.92;0.75;;;;;;;17.73;35.59;98709.94;5035481;28;20028;-70
2022/10/04 00:08:53;;;;;;;2.00;0.68;;;;;;;17.73;35.62;98708.09;5035139;28;20033;-70
2022/10/04 00:11:27;;;;;;;2.53;0.60;;;;;;;17.73;35.61;98704.66;5052281;28;20071;-70
2022/10/04 00:14:07;;;;;;;5.38;0.75;;;;;;;17.69;35.64;98701.47;5035801;28;20032;-70
2022/10/04 00:16:34;;;;;;;2.42;0.57;;;;;;;17.74;35.72;98706.28;5035432;28;20103;-70
2022/10/04 00:19:13;;;;;;;2.65;0.63;;;;;;;17.72;35.67;98695.88;5035186;28;20044;-72
2022/10/04 00:21:55;;;;;;;5.00;0.50;;;;;;;17.66;35.80;98698.34;5036702;28;20037;-71
2022/10/04 00:24:33;;;;;;;1.27;0.52;;;;;;;17.69;35.82;98706.75;5052842;28;20017;-71
2022/10/04 00:27:17;;;;;;;1.95;0.77;;;;;;;17.68;35.87;98694.56;5019435;28;20029;-71
2022/10/04 00:29:43;;;;;;;2.08;0.70;;;;;;;17.68;35.84;98699.84;5051540;28;20087;-71
2022/10/04 00:32:08;;;;;;;3.35;0.75;;;;;;;17.69;35.82;98705.94;5018551;28;20536;-72
2022/10/04 00:34:34;;;;;;;2.13;0.80;;;;;;;17.68;35.93;98704.31;5052446;28;20090;-70
2022/10/04 00:36:59;;;;;;;2.35;0.65;;;;;;;17.66;35.94;98714.19;5052473;28;20067;-71
2022/10/04 00:39:31;;;;;;;2.38;0.40;;;;;;;17.63;35.93;98714.50;5051244;28;20036;-70
2022/10/04 00:42:12;;;;;;;2.60;0.60;;;;;;;17.64;35.82;98718.81;5051363;28;20456;-71
2022/10/04 00:44:50;;;;;;;1.95;0.70;;;;;;;17.58;36.14;98719.47;5052192;28;20045;-71
2022/10/04 00:48:02;;;;;;;2.17;0.70;;;;;;;17.63;36.08;98728.56;5051209;28;20037;-71
2022/10/04 00:50:42;;;;;;;1.92;0.55;;;;;;;17.60;36.06;98734.16;5033862;28;20025;-71
2022/10/04 00:53:32;;;;;;;2.08;0.68;;;;;;;17.57;35.99;98728.34;5033692;28;20039;-71
2022/10/04 00:55:59;;;;;;;7.40;0.80;;;;;;;17.56;36.14;98729.38;4970953;28;20049;-71
2022/10/04 00:58:26;;;;;;;2.00;0.68;;;;;;;17.54;36.23;98738.25;4971402;28;20043;-71
2022/10/04 01:00:52;;;;;;;1.63;0.60;;;;;;;17.54;36.23;98740.91;4939434;28;20042;-71
2022/10/04 01:03:23;;;;;;;2.35;0.65;;;;;;;17.57;35.75;98745.03;4955173;28;20105;-71
2022/10/04 01:05:52;;;;;;;7.35;0.80;;;;;;;17.53;36.20;98741.88;4955782;28;20426;-70
2022/10/04 01:08:24;;;;;;;1.80;0.60;;;;;;;17.49;36.20;98730.00;4955262;28;20046;-70
2022/10/04 01:10:51;;;;;;;1.55;0.50;;;;;;;17.50;36.33;98734.28;4955574;28;20039;-71
2022/10/04 01:13:20;;;;;;;2.90;0.70;;;;;;;17.46;36.17;98743.53;4955220;28;20043;-71
2022/10/04 01:15:55;;;;;;;5.57;0.75;;;;;;;17.45;36.13;98747.16;4939078;28;20055;-70
2022/10/04 01:18:20;;;;;;;0.90;0.40;;;;;;;17.43;36.43;98754.41;4955667;28;20457;-70
2022/10/04 01:20:56;;;;;;;2.85;0.50;;;;;;;17.40;36.59;98748.63;4971333;28;20039;-70
2022/10/04 01:23:41;;;;;;;3.50;0.50;;;;;;;17.39;36.42;98746.97;4954933;28;20039;-70
2022/10/04 01:26:34;;;;;;;1.40;0.50;;;;;;;17.39;36.54;98754.88;4969087;28;20547;-70
2022/10/04 01:29:08;;;;;;;1.35;0.40;;;;;;;17.35;36.62;98757.84;4974191;28;20026;-71
2022/10/04 01:31:37;;;;;;;0.80;0.30;;;;;;;17.31;36.82;98753.84;4974102;28;20042;-70
2022/10/04 01:34:04;;;;;;;1.70;0.45;;;;;;;17.29;36.90;98750.56;5026973;28;20113;-69
2022/10/04 01:36:29;;;;;;;1.15;0.52;;;;;;;17.33;36.97;98767.72;5050780;28;20116;-71
2022/10/04 01:38:55;;;;;;;2.38;0.60;;;;;;;17.32;36.98;98755.50;5051012;28;20522;-70
2022/10/04 01:41:41;;;;;;;2.63;0.70;;;;;;;17.32;37.10;98760.78;5050583;28;20025;-70
2022/10/04 01:44:08;;;;;;;2.03;0.50;;;;;;;17.31;37.17;98755.69;5050541;28;20028;-70
2022/10/04 01:46:35;;;;;;;2.33;0.60;;;;;;;17.30;37.21;98775.97;5050520;28;20139;-70
2022/10/04 01:49:04;;;;;;;2.35;0.50;;;;;;;17.30;37.23;98775.97;5017485;28;20155;-70
2022/10/04 01:51:30;;;;;;;1.85;0.57;;;;;;;17.29;37.30;98776.94;5050054;28;20489;-69
2022/10/04 01:54:00;;;;;;;0.88;0.40;;;;;;;17.30;37.25;98780.41;5033684;28;20065;-70
2022/10/04 01:56:31;;;;;;;0.80;0.30;;;;;;;17.25;37.20;98780.91;5017730;28;20041;-70
2022/10/04 01:59:02;;;;;;;1.40;0.50;;;;;;;17.26;37.51;98787.00;5050457;28;20404;-70
2022/10/04 02:01:47;;;;;;;3.33;0.50;;;;;;;17.27;37.51;98789.47;5050508;28;20029;-69
2022/10/04 02:04:17;;;;;;;1.75;0.50;;;;;;;17.24;37.32;98788.97;5034465;28;20024;-70
2022/10/04 02:06:45;;;;;;;1.02;0.40;;;;;;;17.23;37.62;98785.50;5037776;28;20033;-69
2022/10/04 02:09:17;;;;;;;1.63;0.50;;;;;;;17.22;37.53;98783.00;5037755;28;20025;-77
2022/10/04 02:11:43;;;;;;;2.55;0.50;;;;;;;17.21;37.73;98789.28;5038180;28;20037;-72
2022/10/04 02:14:16;;;;;;;1.77;0.50;;;;;;;17.14;37.62;98782.00;5053947;28;20079;-73
2022/10/04 02:16:43;;;;;;;4.38;0.52;;;;;;;17.19;37.61;98794.72;5037484;28;20067;-71
2022/10/04 02:19:09;;;;;;;0.93;0.30;;;;;;;17.16;37.69;98781.84;5054140;28;20517;-71
2022/10/04 02:21:35;;;;;;;3.20;0.60;;;;;;;17.11;37.82;98786.75;5037377;28;20115;-71
2022/10/04 02:24:00;;;;;;;1.63;0.63;;;;;;;17.13;37.67;98782.97;5053742;28;20103;-71
2022/10/04 02:26:26;;;;;;;2.35;0.70;;;;;;;17.12;37.83;98791.88;5053885;28;20033;-70
2022/10/04 02:28:51;;;;;;;1.20;0.52;;;;;;;17.09;37.84;98789.53;5048106;28;20045;-71
2022/10/04 02:34:04;;;;;;;1.25;0.50;;;;;;;17.07;38.00;98780.16;5040416;28;20071;-72
2022/10/04 02:36:30;;;;;;;2.08;0.70;;;;;;;17.06;37.96;98786.41;5054024;28;20083;-72
2022/10/04 02:39:15;;;;;;;1.35;0.40;;;;;;;16.99;37.92;98775.66;5036840;28;20424;-72
2022/10/04 02:41:51;;;;;;;1.58;0.45;;;;;;;17.00;38.02;98787.88;5022171;28;20094;-72
2022/10/04 02:44:25;;;;;;;2.47;0.50;;;;;;;16.98;38.09;98785.38;5048808;28;20036;-72
2022/10/04 02:46:53;;;;;;;1.48;0.50;;;;;;;16.99;38.16;98792.28;5040169;28;20036;-72
2022/10/04 02:49:21;;;;;;;;;;;;;;;16.97;38.16;98791.63;5075067;28;20025;-72
2022/10/04 02:51:52;;;;;;;2.87;0.37;;;;;;;16.86;38.34;98791.91;5074019;28;19908;-71
2022/10/04 02:54:31;;;;;;;1.30;0.45;;;;;;;16.90;38.42;98795.88;5073120;28;20119;-72
2022/10/04 02:56:56;;;;;;;1.00;0.50;;;;;;;16.84;38.19;98796.50;5073513;28;20103;-72
2022/10/04 02:59:22;;;;;;;1.90;0.40;;;;;;;16.88;38.37;98807.56;5039751;28;20139;-72
2022/10/04 03:01:53;;;;;;;1.50;0.50;;;;;;;16.87;38.38;98822.53;5056555;28;20028;-72
2022/10/04 03:04:24;;;;;;;0.60;0.40;;;;;;;16.81;38.44;98810.78;5056512;28;20032;-71
2022/10/04 03:06:50;;;;;;;0.95;0.43;;;;;;;16.85;38.58;98815.75;5056070;28;20045;-71
2022/10/04 03:09:15;;;;;;;0.95;0.40;;;;;;;16.85;38.48;98824.47;5074102;28;20060;-73
2022/10/04 03:11:41;;;;;;;5.50;0.60;;;;;;;16.83;38.54;98837.81;5056380;28;20037;-72
2022/10/04 03:14:12;;;;;;;1.52;0.57;;;;;;;16.81;38.59;98821.34;5056452;28;20024;-71
2022/10/04 03:16:39;;;;;;;1.65;0.63;;;;;;;16.81;38.47;98828.44;5056526;28;20053;-71
2022/10/04 03:19:05;;;;;;;2.80;0.73;;;;;;;16.76;38.52;98826.25;5056021;28;20027;-71
2022/10/04 03:21:31;;;;;;;2.15;0.43;;;;;;;16.76;38.54;98831.53;5056352;28;20032;-71
2022/10/04 03:23:59;;;;;;;3.80;0.80;;;;;;;16.75;38.52;98836.97;5056103;28;20032;-72
2022/10/04 03:26:38;;;;;;;;;;;;;;;16.73;38.70;98834.47;5073396;28;20390;-72
2022/10/04 03:29:09;;;;;;;;;;;;;;;16.70;38.64;98841.84;5073005;28;19912;-72
2022/10/04 03:31:38;;;;;;;4.68;1.20;;;;;;;16.61;38.76;98838.34;5072463;28;19947;-73
2022/10/04 03:34:03;;;;;;;6.75;1.50;;;;;;;16.61;38.55;98844.41;5039713;28;20452;-71
2022/10/04 03:36:29;;;;;;;6.40;1.40;;;;;;;16.56;38.59;98851.97;5072201;28;20032;-71
2022/10/04 03:38:55;;;;;;;5.18;1.50;;;;;;;16.49;38.62;98845.63;5038990;28;20028;-72
2022/10/04 03:41:22;;;;;;;5.57;1.45;;;;;;;16.42;38.95;98847.25;5072373;28;20029;-72
2022/10/04 03:43:50;;;;;;;3.90;1.20;;;;;;;16.41;39.11;98845.56;5055687;28;20036;-71
2022/10/04 03:46:16;;;;;;;3.72;1.25;;;;;;;16.32;39.23;98842.06;5055881;28;20036;-71
2022/10/04 03:48:49;;;;;;;3.17;1.27;;;;;;;16.33;39.03;98856.03;5055758;28;20039;-70
2022/10/04 03:51:16;;;;;;;6.00;1.23;;;;;;;16.33;39.24;98848.97;5056115;28;20403;-76
2022/10/04 03:53:44;;;;;;;1.63;0.85;;;;;;;16.26;39.23;98854.00;5035373;28;20053;-74
2022/10/04 03:56:16;;;;;;;5.57;0.90;;;;;;;16.21;39.49;98852.81;5036145;28;20040;-74
2022/10/04 03:58:42;;;;;;;5.13;0.95;;;;;;;16.09;39.71;98839.84;5035824;28;20329;-72
2022/10/04 04:01:38;;;;;;;2.75;0.70;;;;;;;16.10;39.89;98853.88;5018833;28;20064;-73
2022/10/04 04:04:10;;;;;;;3.42;0.82;;;;;;;16.10;41.92;98857.31;5052086;28;20067;-71
2022/10/04 04:07:00;;;;;;;5.43;0.75;;;;;;;16.16;43.29;98857.69;5068386;28;20515;-68
2022/10/04 04:09:44;;;;;;;4.93;1.05;;;;;;;16.14;45.65;98868.38;5068558;28;20054;-66
2022/10/04 04:12:14;;;;;;;8.40;1.10;;;;;;;16.75;52.18;98866.78;5039149;28;20032;-79
2022/10/04 04:14:48;;;;;;;11.23;1.48;;;;;;;17.44;51.90;98868.69;5035391;28;20090;-68
2022/10/04 04:17:26;;;;;;;7.68;1.50;;;;;;;17.61;52.26;98866.94;5035289;28;20056;-68
2022/10/04 04:20:03;;;;;;;8.38;1.30;;;;;;;17.84;48.59;98864.56;5053213;28;20041;-71
2022/10/04 04:22:30;;;;;;;6.75;1.00;;;;;;;17.67;46.26;98866.31;5021033;28;20551;-70
2022/10/04 04:24:58;;;;;;;1.38;0.52;;;;;;;17.46;44.58;98874.66;5045237;28;20094;-70
2022/10/04 04:27:24;;;;;;;2.53;0.65;;;;;;;17.51;43.27;98867.91;5041923;28;20044;-70
2022/10/04 04:29:51;;;;;;;4.03;0.80;;;;;;;17.88;41.60;98879.13;5045199;28;20424;-73
2022/10/04 04:32:27;;;;;;;7.05;0.70;;;;;;;18.25;39.88;98876.06;5050725;28;20083;-70
2022/10/04 04:35:07;;;;;;;2.70;0.80;;;;;;;18.57;38.63;98877.09;5060997;28;20024;-70
2022/10/04 04:37:36;;;;;;;2.53;0.70;;;;;;;19.02;37.37;98872.28;5061316;28;20056;-71
2022/10/04 04:40:22;;;;;;;2.80;0.50;;;;;;;19.76;35.86;98885.31;5058972;28;20024;-72
2022/10/04 04:42:48;;;;;;;2.88;0.60;;;;;;;20.37;34.13;98884.66;5045119;28;20484;-69
2022/10/04 04:45:24;;;;;;;1.75;0.60;;;;;;;20.99;32.82;98888.97;5042867;28;20031;-68
2022/10/04 04:47:51;;;;;;;1.50;0.60;;;;;;;21.65;31.56;98891.78;5059577;28;20021;-71
2022/10/04 04:50:20;;;;;;;3.15;0.43;;;;;;;22.26;30.27;98895.94;5028241;28;20526;-69
2022/10/04 04:53:04;;;;;;;3.20;1.00;;;;;;;22.84;29.15;98890.56;5059138;28;20021;-71
2022/10/04 04:55:38;;;;;;;2.80;0.88;;;;;;;23.45;28.17;98887.34;5060689;28;20031;-80
2022/10/04 04:58:03;;;;;;;2.72;0.63;;;;;;;24.02;27.22;98898.69;5044488;28;20120;-68
2022/10/04 05:00:30;;;;;;;1.63;0.60;;;;;;;24.49;26.23;98887.28;5043225;28;20024;-68
2022/10/04 05:02:58;;;;;;;1.92;0.75;;;;;;;24.97;26.06;98888.94;5045546;28;20041;-68
2022/10/04 05:05:26;;;;;;;3.33;0.53;;;;;;;25.40;25.06;98881.31;5041990;28;20024;-67
2022/10/04 05:08:14;;;;;;;1.25;0.55;;;;;;;25.90;24.39;98903.97;5043325;28;20017;-68
2022/10/04 05:11:01;;;;;;;1.45;0.40;;;;;;;26.37;23.80;98901.88;5046832;28;20396;-70
2022/10/04 05:13:49;;;;;;;1.55;0.57;;;;;;;26.83;23.09;98902.59;5060434;28;20024;-68
2022/10/04 05:16:19;;;;;;;1.50;0.38;;;;;;;27.25;22.40;98903.66;5061696;28;20056;-69
2022/10/04 05:18:45;;;;;;;0.93;0.40;;;;;;;27.62;21.97;98900.22;5060497;28;20032;-69
2022/10/04 05:21:21;;;;;;;0.98;0.40;;;;;;;27.97;21.59;98913.84;5027083;28;20427;-69
2022/10/04 05:23:46;;;;;;;1.30;0.60;;;;;;;28.30;21.39;98907.19;5042405;28;20399;-71
2022/10/04 05:26:12;;;;;;;2.03;0.63;;;;;;;28.61;21.03;98917.94;5043072;28;20036;-69
2022/10/04 05:28:38;;;;;;;1.27;0.50;;;;;;;28.83;20.56;98915.53;5022361;28;20053;-68
2022/10/04 05:31:17;;;;;;;1.13;0.30;;;;;;;29.09;20.32;98916.94;5034388;28;20063;-71
2022/10/04 05:33:48;;;;;;;2.63;0.70;;;;;;;29.36;20.15;98919.19;5051025;28;20041;-68
2022/10/04 05:36:33;;;;;;;1.38;0.50;;;;;;;29.57;19.57;98929.31;5051043;28;20048;-68
2022/10/04 05:39:14;;;;;;;2.92;0.30;;;;;;;29.82;19.86;98922.84;5051902;28;20051;-68
2022/10/04 05:42:17;;;;;;;0.63;0.38;;;;;;;30.04;19.36;98925.72;5055928;28;20032;-68
2022/10/04 05:44:55;;;;;;;2.33;0.43;;;;;;;30.35;19.35;98931.66;5073520;28;20504;-69
2022/10/04 05:47:26;;;;;;;1.80;0.40;;;;;;;30.61;18.94;98938.34;5040394;28;20111;-70
2022/10/04 05:49:54;;;;;;;3.03;0.30;;;;;;;30.85;18.49;98928.25;5057768;28;20040;-69
2022/10/04 05:52:32;;;;;;;2.10;0.50;;;;;;;31.09;18.12;98936.19;5040103;28;20040;-69
2022/10/04 05:55:25;;;;;;;1.45;0.40;;;;;;;31.32;18.14;98926.25;5040590;28;20036;-69
2022/10/04 05:57:50;;;;;;;4.75;0.50;;;;;;;31.65;17.76;98935.38;5057291;28;20553;-69
2022/10/04 06:00:17;;;;;;;0.80;0.30;;;;;;;31.89;17.58;98935.91;5073623;28;20033;-69
2022/10/04 06:02:53;;;;;;;1.27;0.30;;;;;;;32.15;17.52;98945.16;5023759;28;20052;-67
2022/10/04 06:05:27;;;;;;;3.40;0.40;;;;;;;32.49;17.21;98949.53;5073388;28;20040;-69
2022/10/04 06:08:14;;;;;;;1.40;0.43;;;;;;;32.82;16.66;98953.91;5073032;28;20136;-69
2022/10/04 06:10:48;;;;;;;3.55;0.63;;;;;;;33.17;16.48;98957.97;5073435;28;20531;-68
2022/10/04 06:13:27;;;;;;;1.38;0.50;;;;;;;33.44;16.19;98967.91;5073185;28;20481;-67
2022/10/04 06:16:30;;;;;;;2.10;0.52;;;;;;;32.47;17.15;98968.72;5073123;28;20056;-69
2022/10/04 06:19:50;;;;;;;2.17;0.50;;;;;;;31.65;17.64;98970.44;5073409;28;20071;-69
2022/10/04 06:22:22;;;;;;;2.83;0.40;;;;;;;30.98;18.09;98974.81;4996638;28;20038;-67
2022/10/04 06:24:56;;;;;;;1.98;0.65;;;;;;;30.30;18.66;98969.28;5011274;28;20135;-67
2022/10/04 06:27:35;;;;;;;3.25;0.45;;;;;;;29.80;19.17;98969.91;5000779;28;20029;-69
2022/10/04 06:30:14;;;;;;;2.35;0.50;;;;;;;29.30;19.89;98980.06;5017321;28;20132;-68
2022/10/04 06:33:01;;;;;;;1.23;0.50;;;;;;;29.26;20.26;98978.91;5017100;28;20041;-68
2022/10/04 06:35:35;;;;;;;4.03;0.55;;;;;;;29.80;19.74;98984.16;5033206;28;20039;-68
2022/10/04 06:38:13;;;;;;;1.35;0.50;;;;;;;30.16;19.35;98982.22;5033118;28;20081;-69
2022/10/04 06:41:00;;;;;;;1.88;0.43;;;;;;;29.98;19.69;98991.25;5033176;28;20120;-69
2022/10/04 06:43:44;;;;;;;2.28;0.32;;;;;;;29.86;19.22;98991.28;5032821;28;20207;-68
2022/10/04 06:46:09;;;;;;;1.70;0.40;;;;;;;29.56;20.11;98983.34;5032589;28;20052;-68
2022/10/04 06:48:55;;;;;;;2.90;0.50;;;;;;;30.27;19.51;98986.72;5032593;28;20524;-68
2022/10/04 06:51:39;;;;;;;1.65;0.30;;;;;;;31.29;17.96;98994.97;5017854;28;20505;-68
2022/10/04 06:54:39;;;;;;;1.48;0.30;;;;;;;32.12;17.52;98994.28;5032817;28;20473;-68
2022/10/04 06:57:42;;;;;;;0.95;0.30;;;;;;;33.06;16.49;98988.72;5047592;28;20029;-68
2022/10/04 07:00:23;;;;;;;1.45;0.30;;;;;;;33.94;15.90;98995.50;5054814;28;20511;-69
2022/10/04 07:03:00;;;;;;;1.92;0.50;;;;;;;34.67;15.36;98995.47;5036991;28;20108;-68
2022/10/04 07:05:37;;;;;;;1.83;0.38;;;;;;;34.88;14.92;99003.63;5036665;28;20037;-69
2022/10/04 07:08:10;;;;;;;2.67;0.60;;;;;;;34.71;14.77;99006.56;5053083;28;20043;-69
2022/10/04 07:10:39;;;;;;;2.42;0.50;;;;;;;35.07;14.56;99004.72;5036519;28;20506;-69
2022/10/04 07:13:11;;;;;;;5.82;0.52;;;;;;;35.47;14.02;99005.78;5055958;28;20404;-69
2022/10/04 07:15:58;;;;;;;1.00;0.30;;;;;;;35.78;14.01;99019.31;5056484;28;20029;-70
2022/10/04 07:18:52;;;;;;;0.88;0.35;;;;;;;36.07;13.65;98999.63;5056215;28;20083;-69
2022/10/04 07:21:17;;;;;;;0.45;0.20;;;;;;;36.43;13.58;99013.06;5072882;28;20116;-69
2022/10/04 07:23:49;;;;;;;1.02;0.40;;;;;;;36.67;13.06;99013.16;5039569;28;20024;-69
2022/10/04 07:26:44;;;;;;;1.55;0.40;;;;;;;36.82;13.11;99004.13;5056074;28;20115;-68
2022/10/04 07:29:21;;;;;;;1.00;0.30;;;;;;;37.04;12.85;99003.66;5042019;28;20067;-67
2022/10/04 07:31:52;;;;;;;1.67;0.40;;;;;;;37.34;12.72;99006.41;5056365;28;20051;-68
2022/10/04 07:34:27;;;;;;;0.77;0.30;;;;;;;36.51;13.38;99004.28;5039322;28;20036;-69
2022/10/04 07:36:54;;;;;;;1.52;0.30;;;;;;;37.08;13.09;99010.16;5039353;28;20032;-69
2022/10/04 07:39:28;;;;;;;1.73;0.70;;;;;;;37.29;12.66;99015.44;5072597;28;20024;-69
2022/10/04 07:41:56;;;;;;;2.00;0.40;;;;;;;37.45;12.59;99014.19;5056909;28;20419;-70
2022/10/04 07:44:39;;;;;;;1.50;0.40;;;;;;;37.59;12.57;99017.06;5056094;28;20056;-71
2022/10/04 07:47:20;;;;;;;0.60;0.25;;;;;;;37.78;12.60;99014.41;5055620;28;20119;-72
2022/10/04 07:49:47;;;;;;;1.25;0.28;;;;;;;38.08;12.11;99020.59;5073870;28;20090;-68
2022/10/04 07:52:31;;;;;;;2.67;0.40;;;;;;;38.19;12.08;99016.66;5055985;28;20043;-68
2022/10/04 07:55:12;;;;;;;0.93;0.40;;;;;;;37.29;12.39;99012.72;5072176;28;20028;-68
2022/10/04 07:57:56;;;;;;;3.83;0.38;;;;;;;36.34;13.17;99020.16;5073492;28;20024;-68
2022/10/04 08:00:26;;;;;;;3.80;0.50;;;;;;;35.43;13.85;99014.75;5071815;28;20036;-69
2022/10/04 08:03:13;;;;;;;0.88;0.30;;;;;;;34.86;14.33;99031.03;5038533;28;20035;-70
2022/10/04 08:05:45;;;;;;;1.40;0.38;;;;;;;35.55;13.83;99018.00;5073275;28;20028;-69
2022/10/04 08:08:38;;;;;;;0.75;0.20;;;;;;;34.30;14.78;99018.16;5055130;28;20048;-71
2022/10/04 08:11:11;;;;;;;2.67;0.35;;;;;;;33.55;15.11;99023.69;5055282;28;20039;-68
2022/10/04 08:13:50;;;;;;;1.55;0.47;;;;;;;32.96;16.20;99033.50;5071813;28;20491;-69
2022/10/04 08:16:22;;;;;;;1.80;0.40;;;;;;;32.59;16.11;99028.00;5071739;28;20048;-68
2022/10/04 08:18:53;;;;;;;0.68;0.38;;;;;;;32.43;16.55;99035.94;5073136;28;20103;-68
2022/10/04 08:21:25;;;;;;;13.20;2.25;;;;;;;32.28;16.63;99031.19;5072021;28;20027;-69
2022/10/04 08:23:57;;;;;;;11.20;2.03;;;;;;;31.99;17.11;99048.59;5071893;28;20028;-69
2022/10/04 08:26:51;;;;;;;10.85;1.88;;;;;;;31.45;17.43;99055.38;5055438;28;20024;-68
2022/10/04 08:29:43;;;;;;;8.48;1.40;;;;;;;30.85;17.83;99052.22;5055003;28;20087;-68
2022/10/04 08:32:40;;;;;;;6.85;1.10;;;;;;;30.38;18.26;99056.91;5073464;28;20133;-70
2022/10/04 08:35:32;;;;;;;4.05;0.60;;;;;;;30.00;18.54;99050.22;5071808;28;20031;-68
2022/10/04 08:38:25;;;;;;;5.82;0.80;;;;;;;29.72;18.50;99063.31;5071917;28;20491;-68
2022/10/04 08:41:07;;;;;;;8.80;0.88;;;;;;;29.47;18.81;99068.94;5057567;28;20033;-68
2022/10/04 08:43:55;;;;;;;9.52;1.40;;;;;;;29.33;19.21;99059.44;5071271;28;20468;-67
2022/10/04 08:46:45;;;;;;;7.40;1.27;;;;;;;30.54;18.40;99058.91;5071122;28;20108;-68
2022/10/04 08:49:38;;;;;;;13.25;1.50;;;;;;;31.35;17.97;99055.22;5072545;28;20418;-67
2022/10/04 08:52:40;;;;;;;2.97;0.98;;;;;;;32.15;17.27;99046.94;5072813;28;20054;-69
2022/10/04 08:55:37;;;;;;;2.28;0.70;;;;;;;32.92;16.72;99050.50;5072368;28;20028;-69
2022/10/04 08:58:28;;;;;;;2.60;0.52;;;;;;;32.36;16.97;99051.53;5071134;28;20064;-68
2022/10/04 09:01:15;;;;;;;1.02;0.35;;;;;;;31.92;17.12;99060.38;5069657;28;20483;-71
2022/10/04 09:03:41;;;;;;;8.25;0.90;;;;;;;32.74;16.44;99063.31;5072932;28;20028;-67
2022/10/04 09:06:51;;;;;;;14.20;2.08;;;;;;;33.35;16.28;99054.13;5072384;28;20028;-68
2022/10/04 09:09:34;;;;;;;6.53;0.90;;;;;;;33.78;15.44;99055.00;5062564;28;20036;-68
2022/10/04 09:12:40;;;;;;;11.77;0.75;;;;;;;34.22;14.83;99057.38;5072499;28;20488;-68
2022/10/04 09:15:40;;;;;;;1.73;0.40;;;;;;;34.60;14.56;99052.66;5072347;28;20056;-68
2022/10/04 09:18:11;;;;;;;1.00;0.40;;;;;;;34.93;14.84;99047.03;5053227;28;20119;-69
2022/10/04 09:21:13;;;;;;;1.40;0.47;;;;;;;35.22;14.62;99049.19;5053166;28;20036;-67
2022/10/04 09:23:56;;;;;;;3.10;0.40;;;;;;;35.47;14.38;99070.94;5070289;28;20029;-69
2022/10/04 09:26:24;;;;;;;3.13;0.47;;;;;;;35.69;13.96;99075.22;5070212;28;20451;-69
2022/10/04 09:29:04;;;;;;;0.57;0.30;;;;;;;35.89;13.80;99068.97;5053124;28;20029;-68
2022/10/04 09:32:04;;;;;;;2.05;0.32;;;;;;;36.09;13.47;99073.53;5036512;28;20050;-68
2022/10/04 09:34:56;;;;;;;2.25;0.40;;;;;;;35.81;13.51;99083.91;5055612;28;20132;-69
2022/10/04 09:37:58;;;;;;;1.67;0.40;;;;;;;34.86;14.28;99079.03;5052890;28;20110;-70
2022/10/04 09:40:46;;;;;;;1.17;0.30;;;;;;;34.67;14.38;99073.28;5070282;28;20107;-69
2022/10/04 09:43:49;;;;;;;2.05;0.40;;;;;;;34.94;13.98;99076.59;5053131;28;20499;-66
2022/10/04 09:46:51;;;;;;;0.70;0.40;;;;;;;35.22;14.01;99077.16;5070452;28;20393;-68
2022/10/04 09:49:38;;;;;;;1.10;0.43;;;;;;;35.41;13.79;99077.44;5052785;28;20032;-69
2022/10/04 09:52:11;;;;;;;1.40;0.50;;;;;;;35.49;13.82;99073.38;5070764;28;20032;-69
2022/10/04 09:54:55;;;;;;;1.13;0.40;;;;;;;35.54;14.01;99073.38;5070641;28;20093;-68
2022/10/04 09:57:40;;;;;;;3.58;0.50;;;;;;;35.53;14.10;99071.72;5071116;28;20067;-68
2022/10/04 10:00:21;;;;;;;1.25;0.57;;;;;;;35.50;13.69;99064.13;5054105;28;20040;-67
2022/10/04 10:03:32;;;;;;;2.35;0.60;;;;;;;35.46;13.94;99063.06;5070479;28;20036;-68
2022/10/04 10:06:19;;;;;;;0.93;0.40;;;;;;;35.39;14.00;99065.22;5069133;28;20051;-68
2022/10/04 10:08:57;;;;;;;1.52;0.38;;;;;;;35.26;13.68;99063.88;5071653;28;20117;-68
2022/10/04 10:14:59;;;;;;;3.15;0.30;;;;;;;35.05;14.10;99066.56;5071638;28;20042;-68
2022/10/04 10:17:39;;;;;;;3.72;0.60;;;;;;;34.86;14.10;99073.59;5071207;28;20105;-68
2022/10/04 10:20:53;;;;;;;0.70;0.30;;;;;;;34.61;14.21;99061.59;5071175;28;20067;-68
2022/10/04 10:23:18;;;;;;;1.00;0.30;;;;;;;34.38;14.30;99066.41;5070541;28;20119;-69
2022/10/04 10:26:14;;;;;;;1.08;0.40;;;;;;;34.14;14.73;99076.03;5070934;28;20124;-68
2022/10/04 10:29:02;;;;;;;2.30;0.50;;;;;;;33.88;14.96;99065.88;5075440;28;20025;-69
2022/10/04 10:31:30;;;;;;;1.52;0.52;;;;;;;33.58;15.19;99069.19;5074146;28;20476;-68
2022/10/04 10:34:42;;;;;;;0.47;0.30;;;;;;;33.25;15.51;99075.72;5073768;28;20047;-68
2022/10/04 10:37:14;;;;;;;3.25;0.40;;;;;;;33.06;15.69;99075.25;5068685;28;20408;-69
2022/10/04 10:40:15;;;;;;;2.95;0.32;;;;;;;32.70;15.86;99073.00;5073751;28;20017;-67
2022/10/04 10:43:14;;;;;;;3.60;0.30;;;;;;;32.45;16.26;99060.81;5075084;28;20037;-68
2022/10/04 10:46:00;;;;;;;1.88;0.40;;;;;;;32.34;16.49;99077.97;5073884;28;20127;-69
2022/10/04 10:48:25;;;;;;;2.00;0.35;;;;;;;32.17;16.70;99079.94;5073783;28;20029;-68
2022/10/04 10:51:09;;;;;;;1.42;0.50;;;;;;;32.04;16.98;99086.44;5073759;28;20051;-69
2022/10/04 10:53:55;;;;;;;4.97;0.50;;;;;;;31.81;17.07;99077.50;5073704;28;20418;-69
2022/10/04 10:56:30;;;;;;;2.63;0.50;;;;;;;31.76;16.96;99082.84;5057106;28;20388;-69
2022/10/04 10:59:20;;;;;;;1.02;0.30;;;;;;;31.62;17.25;99076.16;5073430;28;20045;-69
2022/10/04 11:02:18;;;;;;;1.05;0.40;;;;;;;31.47;17.28;99085.63;5074135;28;20024;-72
2022/10/04 11:04:56;;;;;;;0.70;0.32;;;;;;;31.38;17.76;99089.78;5072919;28;20083;-69
2022/10/04 11:07:54;;;;;;;0.95;0.30;;;;;;;30.99;18.19;99087.78;5073269;28;20059;-69
2022/10/04 11:10:58;;;;;;;1.30;0.40;;;;;;;30.71;18.36;99091.28;5059355;28;20032;-70
2022/10/04 11:13:55;;;;;;;1.00;0.30;;;;;;;30.57;18.75;99089.91;5073322;28;20021;-71
2022/10/04 11:16:33;;;;;;;3.03;0.40;;;;;;;30.46;18.68;99095.09;5074226;28;20473;-69
2022/10/04 11:19:18;;;;;;;1.88;0.43;;;;;;;30.28;19.19;99109.53;5057560;28;20283;-69
2022/10/04 11:22:17;;;;;;;0.80;0.40;;;;;;;30.02;19.56;99094.69;5074611;28;20042;-69
2022/10/04 11:25:14;;;;;;;3.97;0.50;;;;;;;29.81;19.41;99093.44;5074342;28;20031;-70
2022/10/04 11:27:51;;;;;;;1.33;0.32;;;;;;;29.53;19.56;99076.06;5074411;28;20027;-71
2022/10/04 11:30:26;;;;;;;;;;;;;;;29.42;19.55;99090.31;5074387;28;20029;-70
2022/10/04 11:33:13;;;;;;;1.45;0.40;;;;;;;29.25;19.59;99083.97;5056473;28;20302;-69
2022/10/04 11:36:06;;;;;;;;;;;;;;;29.02;19.91;99086.34;5074636;28;20140;-69
2022/10/04 11:38:50;;;;;;;0.70;0.20;;;;;;;28.80;20.35;99080.66;5064365;28;20345;-68
2022/10/04 11:41:50;;;;;;;0.43;0.20;;;;;;;28.66;20.19;99087.25;5072597;28;20066;-70
2022/10/04 11:44:37;;;;;;;2.67;0.45;;;;;;;28.38;20.24;99072.50;5059493;28;20028;-68
2022/10/04 11:47:08;;;;;;;1.33;0.40;;;;;;;28.25;20.63;99092.25;5072156;28;20506;-69
2022/10/04 11:50:02;;;;;;;1.00;0.40;;;;;;;28.06;20.43;99088.75;5072234;28;20039;-69
2022/10/04 11:52:35;;;;;;;2.20;0.50;;;;;;;27.90;20.90;99092.00;5055849;28;20032;-69
2022/10/04 11:55:26;;;;;;;3.33;0.40;;;;;;;27.76;21.04;99102.84;5073550;28;20028;-69
2022/10/04 11:57:58;;;;;;;4.75;0.45;;;;;;;27.65;21.21;99081.28;5072777;28;20031;-68
2022/10/04 12:00:25;;;;;;;2.95;0.50;;;;;;;27.55;21.19;99089.84;5055518;28;20423;-68
2022/10/04 12:03:01;;;;;;;5.45;0.65;;;;;;;27.38;21.12;99079.63;5055821;28;20021;-68
2022/10/04 12:05:33;;;;;;;9.02;0.70;;;;;;;27.33;21.56;99089.38;5071812;28;20036;-68
2022/10/04 12:08:14;;;;;;;5.25;0.63;;;;;;;27.18;21.80;99087.78;5073623;28;20028;-68
2022/10/04 12:10:40;;;;;;;3.38;0.50;;;;;;;27.02;22.16;99081.09;5072585;28;20029;-69
2022/10/04 12:13:22;;;;;;;5.43;0.55;;;;;;;26.97;22.31;99086.28;5038710;28;20029;-67
2022/10/04 12:16:06;;;;;;;5.30;0.70;;;;;;;26.89;21.82;99084.66;5072043;28;20099;-68
2022/10/04 12:18:59;;;;;;;3.95;0.60;;;;;;;26.76;21.69;99075.88;5073110;28;20418;-70
2022/10/04 12:22:00;;;;;;;6.70;0.63;;;;;;;26.64;22.30;99081.06;5073331;28;20170;-68
2022/10/04 12:24:46;;;;;;;8.60;2.22;;;;;;;26.52;22.32;99078.25;5037550;28;20119;-67
2022/10/04 12:27:30;;;;;;;8.88;1.48;;;;;;;26.49;22.48;99078.69;5054400;28;20028;-71
2022/10/04 12:29:59;;;;;;;5.22;1.30;;;;;;;26.42;22.28;99078.69;5053940;28;20040;-67
2022/10/04 12:32:33;;;;;;;2.30;0.88;;;;;;;26.35;22.17;99073.38;5053983;28;20021;-71